createdAt,value
2023-02-17T00:02:16.795Z,15.00
2023-02-17T00:04:46.182Z,13.75
2023-02-17T00:07:14.061Z,14.75
2023-02-17T00:09:42.225Z,14.00
2023-02-17T00:12:10.130Z,13.75
2023-02-17T00:14:39.569Z,14.00
2023-02-17T00:17:07.547Z,12.50
2023-02-17T00:19:35.445Z,11.75
2023-02-17T00:22:04.688Z,13.50
2023-02-17T00:24:33.068Z,12.75
2023-02-17T00:27:01.101Z,12.00
2023-02-17T00:29:29.005Z,13.25
2023-02-17T00:31:57.118Z,13.00
2023-02-17T00:34:25.058Z,12.00
2023-02-17T00:36:53.016Z,13.50
2023-02-17T00:39:22.602Z,15.00
2023-02-17T00:41:50.554Z,11.25
2023-02-17T00:44:19.281Z,12.50
2023-02-17T00:46:47.287Z,12.00
2023-02-17T00:49:16.857Z,10.50
2023-02-17T00:51:44.753Z,10.00
2023-02-17T00:54:12.681Z,10.50
2023-02-17T00:56:41.918Z,11.75
2023-02-17T00:59:10.284Z,10.25
2023-02-17T01:01:38.640Z,10.00
2023-02-17T01:04:06.609Z,11.00
2023-02-17T01:06:35.246Z,10.75
2023-02-17T01:09:03.485Z,11.00
2023-02-17T01:11:32.269Z,12.00
2023-02-17T01:14:01.739Z,10.25
2023-02-17T01:16:30.829Z,10.00
2023-02-17T01:18:59.006Z,11.00
2023-02-17T01:21:28.889Z,10.00
2023-02-17T01:23:57.667Z,12.50
2023-02-17T01:26:26.283Z,11.00
2023-02-17T01:28:54.612Z,11.25
2023-02-17T01:31:24.122Z,10.00
2023-02-17T01:33:52.111Z,10.75
2023-02-17T01:36:20.153Z,10.50
2023-02-17T01:38:48.345Z,10.00
2023-02-17T01:41:16.864Z,10.00
2023-02-17T01:43:44.721Z,11.00
2023-02-17T01:46:12.669Z,7.50
2023-02-17T01:48:43.477Z,8.00
2023-02-17T01:51:12.288Z,10.00
2023-02-17T01:53:41.469Z,9.00
2023-02-17T01:56:09.373Z,8.75
2023-02-17T01:58:37.270Z,9.75
2023-02-17T02:01:05.251Z,9.00
2023-02-17T02:03:33.969Z,8.25
2023-02-17T02:06:03.537Z,8.50
2023-02-17T02:08:32.234Z,9.00
2023-02-17T02:11:00.097Z,7.50
2023-02-17T02:13:28.042Z,8.50
2023-02-17T02:15:58.567Z,7.50
2023-02-17T02:18:36.151Z,9.50
2023-02-17T02:21:46.129Z,8.00
2023-02-17T02:24:26.417Z,7.25
2023-02-17T02:27:30.890Z,6.75
2023-02-17T02:30:24.621Z,8.00
2023-02-17T02:32:58.639Z,7.00
2023-02-17T02:35:30.422Z,7.00
2023-02-17T02:38:01.016Z,7.00
2023-02-17T02:40:31.037Z,8.25
2023-02-17T02:42:59.679Z,7.75
2023-02-17T02:45:27.606Z,7.75
2023-02-17T02:47:58.032Z,7.75
2023-02-17T02:50:30.149Z,8.00
2023-02-17T02:53:04.198Z,7.00
2023-02-17T02:55:39.135Z,9.00
2023-02-17T02:58:08.253Z,7.00
2023-02-17T03:00:39.278Z,7.00
2023-02-17T03:03:10.051Z,6.75
2023-02-17T03:05:39.776Z,7.50
2023-02-17T03:08:09.921Z,8.00
2023-02-17T03:10:37.936Z,8.00
2023-02-17T03:13:05.908Z,7.00
2023-02-17T03:15:34.572Z,6.50
2023-02-17T03:18:03.009Z,5.25
2023-02-17T03:20:34.448Z,7.25
2023-02-17T03:23:02.297Z,7.00
2023-02-17T03:25:30.206Z,8.75
2023-02-17T03:27:58.427Z,6.50
2023-02-17T03:30:26.348Z,5.50
2023-02-17T03:32:54.218Z,6.25
2023-02-17T03:35:22.126Z,7.25
2023-02-17T03:37:51.699Z,6.75
2023-02-17T03:40:19.834Z,6.00
2023-02-17T03:42:47.749Z,6.00
2023-02-17T03:45:15.774Z,6.00
2023-02-17T03:47:43.906Z,5.75
2023-02-17T03:50:12.179Z,7.00
2023-02-17T03:52:40.092Z,6.25
2023-02-17T03:55:09.542Z,7.00
2023-02-17T03:57:37.740Z,7.00
2023-02-17T04:00:08.189Z,7.50
2023-02-17T04:02:36.087Z,7.00
2023-02-17T04:05:04.030Z,7.00
2023-02-17T04:07:32.264Z,6.00
2023-02-17T04:10:00.145Z,6.00
2023-02-17T04:12:29.447Z,5.25
2023-02-17T04:14:57.325Z,6.00
2023-02-17T04:17:25.470Z,6.00
2023-02-17T04:19:53.408Z,5.00
2023-02-17T04:22:21.310Z,6.75
2023-02-17T04:24:49.169Z,5.00
2023-02-17T04:27:17.206Z,5.00
2023-02-17T04:29:46.722Z,5.75
2023-02-17T04:32:14.627Z,5.75
2023-02-17T04:34:42.543Z,5.25
2023-02-17T04:37:10.403Z,6.00
2023-02-17T04:39:38.563Z,5.00
2023-02-17T04:42:06.919Z,5.75
2023-02-17T04:44:35.020Z,5.00
2023-02-17T04:47:04.301Z,4.50
2023-02-17T04:49:32.242Z,6.50
2023-02-17T04:52:00.133Z,5.75
2023-02-17T04:54:28.076Z,4.25
2023-02-17T04:56:56.014Z,5.00
2023-02-17T04:59:25.658Z,5.75
2023-02-17T05:01:53.652Z,4.75
2023-02-17T05:04:23.058Z,4.75
2023-02-17T05:06:50.950Z,6.00
2023-02-17T05:09:19.149Z,4.00
2023-02-17T05:11:47.075Z,5.00
2023-02-17T05:14:14.947Z,4.50
2023-02-17T05:16:42.883Z,5.50
2023-02-17T05:19:11.025Z,5.75
2023-02-17T05:21:40.255Z,5.00
2023-02-17T05:24:08.412Z,5.00
2023-02-17T05:26:36.678Z,5.00
2023-02-17T05:29:04.867Z,5.75
2023-02-17T05:31:33.065Z,6.50
2023-02-17T05:34:00.995Z,6.75
2023-02-17T05:36:29.004Z,7.00
2023-02-17T05:38:58.567Z,7.00
2023-02-17T05:41:26.467Z,7.00
2023-02-17T05:43:54.326Z,8.00
2023-02-17T05:46:23.079Z,8.00
2023-02-17T05:48:51.324Z,7.00
2023-02-17T05:51:19.165Z,8.25
2023-02-17T05:53:47.070Z,8.25
2023-02-17T05:56:16.423Z,10.00
2023-02-17T05:58:44.658Z,11.00
2023-02-17T06:01:12.872Z,9.00
2023-02-17T06:03:40.909Z,10.50
2023-02-17T06:06:09.011Z,10.25
2023-02-17T06:08:37.636Z,11.75
2023-02-17T06:11:05.951Z,14.25
2023-02-17T06:13:35.216Z,13.25
2023-02-17T06:16:03.226Z,11.25
2023-02-17T06:18:31.437Z,12.75
2023-02-17T06:20:59.493Z,12.75
2023-02-17T06:23:27.552Z,12.75
2023-02-17T06:25:55.465Z,13.25
2023-02-17T06:28:23.326Z,10.00
2023-02-17T06:30:52.941Z,13.75
2023-02-17T06:33:20.870Z,13.75
2023-02-17T06:35:52.098Z,14.00
2023-02-17T06:38:20.311Z,11.00
2023-02-17T06:40:48.255Z,12.00
2023-02-17T06:43:16.138Z,12.50
2023-02-17T06:45:44.108Z,13.00
2023-02-17T06:48:13.672Z,15.00
2023-02-17T06:50:41.545Z,12.50
2023-02-17T06:53:09.469Z,14.25
2023-02-17T06:55:39.003Z,14.00
2023-02-17T06:58:07.335Z,16.00
2023-02-17T07:00:35.328Z,12.75
2023-02-17T07:03:03.315Z,14.00
2023-02-17T07:05:32.633Z,13.50
2023-02-17T07:08:00.788Z,12.75
2023-02-17T07:10:28.680Z,13.25
2023-02-17T07:12:56.598Z,14.75
2023-02-17T07:15:24.540Z,16.50
2023-02-17T07:17:52.697Z,14.25
2023-02-17T07:20:20.832Z,14.25
2023-02-17T07:22:50.100Z,14.50
2023-02-17T07:25:18.013Z,15.25
2023-02-17T07:27:46.188Z,14.75
2023-02-17T07:30:14.906Z,12.75
2023-02-17T07:32:43.248Z,13.00
2023-02-17T07:35:11.377Z,13.00
2023-02-17T07:37:39.625Z,13.25
2023-02-17T07:40:09.697Z,13.00
2023-02-17T07:42:37.556Z,12.50
2023-02-17T07:45:08.604Z,13.00
2023-02-17T07:47:36.778Z,13.00
2023-02-17T07:50:04.686Z,13.00
2023-02-17T07:52:34.104Z,11.25
2023-02-17T07:55:02.074Z,13.00
2023-02-17T07:57:31.644Z,11.75
2023-02-17T07:59:59.561Z,12.00
2023-02-17T08:02:27.562Z,11.00
2023-02-17T08:04:55.428Z,11.50
2023-02-17T08:07:23.660Z,13.25
2023-02-17T08:10:08.725Z,11.00
2023-02-17T08:13:04.013Z,11.75
2023-02-17T08:15:34.243Z,10.25
2023-02-17T08:18:04.966Z,11.75
2023-02-17T08:20:34.963Z,14.25
2023-02-17T08:23:03.624Z,11.00
2023-02-17T08:25:33.148Z,10.50
2023-02-17T08:28:02.542Z,10.00
2023-02-17T08:30:30.684Z,10.50
2023-02-17T08:32:58.701Z,9.75
2023-02-17T08:35:26.576Z,11.25
2023-02-17T08:37:54.752Z,9.00
2023-02-17T08:40:22.720Z,9.50
2023-02-17T08:42:50.679Z,10.00
2023-02-17T08:45:20.141Z,8.50
2023-02-17T08:47:50.973Z,10.00
2023-02-17T08:50:20.145Z,9.00
2023-02-17T08:52:48.161Z,8.25
2023-02-17T08:55:18.459Z,8.00
2023-02-17T08:57:46.667Z,8.50
2023-02-17T09:00:15.736Z,10.25
2023-02-17T09:02:45.276Z,8.00
2023-02-17T09:05:13.743Z,8.00
2023-02-17T09:07:42.036Z,8.50
2023-02-17T09:10:10.632Z,8.50
2023-02-17T09:12:38.527Z,7.00
2023-02-17T09:15:09.809Z,8.50
2023-02-17T09:17:40.935Z,7.00
2023-02-17T09:20:23.839Z,7.00
2023-02-17T09:22:52.836Z,7.25
2023-02-17T09:25:20.835Z,7.00
2023-02-17T09:27:49.372Z,9.00
2023-02-17T09:30:17.360Z,7.75
2023-02-17T09:32:45.381Z,7.00
2023-02-17T09:35:14.974Z,6.00
2023-02-17T09:37:43.169Z,7.75
2023-02-17T09:40:17.014Z,6.75
2023-02-17T09:42:44.908Z,6.00
2023-02-17T09:45:15.415Z,7.00
2023-02-17T09:47:45.233Z,6.25
2023-02-17T09:50:16.624Z,6.75
2023-02-17T09:52:48.985Z,6.00
2023-02-17T09:55:18.083Z,6.75
2023-02-17T09:57:48.600Z,5.50
2023-02-17T10:00:17.980Z,6.00
2023-02-17T10:02:48.267Z,6.00
2023-02-17T10:05:19.732Z,6.00
2023-02-17T10:07:48.478Z,5.75
2023-02-17T10:10:19.263Z,6.00
2023-02-17T10:12:48.386Z,5.50
2023-02-17T10:15:19.406Z,4.75
2023-02-17T10:17:49.670Z,5.75
2023-02-17T10:20:20.910Z,5.75
2023-02-17T10:22:51.384Z,5.00
2023-02-17T10:25:20.311Z,5.00
2023-02-17T10:27:49.887Z,6.00
2023-02-17T10:30:25.498Z,5.50
2023-02-17T10:33:00.496Z,6.00
2023-02-17T10:35:45.428Z,5.00
2023-02-17T10:38:17.061Z,5.75
2023-02-17T10:40:46.568Z,4.50
2023-02-17T10:43:14.658Z,6.00
2023-02-17T10:45:45.084Z,6.50
2023-02-17T10:48:14.556Z,4.75
2023-02-17T10:50:44.315Z,5.75
2023-02-17T10:53:15.954Z,6.00
2023-02-17T10:55:49.150Z,5.50
2023-02-17T10:58:19.731Z,5.50
2023-02-17T11:00:47.719Z,4.00
2023-02-17T11:03:21.917Z,5.25
2023-02-17T11:05:56.340Z,4.00
2023-02-17T11:08:32.144Z,4.50
2023-02-17T11:11:01.876Z,4.50
2023-02-17T11:13:33.253Z,4.00
2023-02-17T11:16:01.194Z,4.75
2023-02-17T11:18:30.074Z,4.75
2023-02-17T11:21:04.805Z,3.75
2023-02-17T11:23:32.953Z,4.00
2023-02-17T11:26:10.221Z,4.00
2023-02-17T11:28:38.136Z,4.25
2023-02-17T11:31:07.269Z,5.00
2023-02-17T11:33:37.022Z,4.00
2023-02-17T11:36:07.558Z,3.75
2023-02-17T11:38:43.424Z,4.00
2023-02-17T11:41:11.295Z,3.00
2023-02-17T11:43:39.270Z,5.25
2023-02-17T11:46:15.945Z,3.00
2023-02-17T11:49:00.325Z,4.00
2023-02-17T11:51:33.717Z,3.00
2023-02-17T11:54:05.434Z,5.00
2023-02-17T11:56:35.534Z,3.00
2023-02-17T11:59:28.507Z,3.25
2023-02-17T12:02:05.413Z,4.00
2023-02-17T12:04:33.386Z,3.25
2023-02-17T12:07:14.009Z,3.00
2023-02-17T12:09:46.808Z,3.25
2023-02-17T12:12:17.264Z,3.50
2023-02-17T12:14:54.428Z,4.00
2023-02-17T12:17:25.423Z,3.00
2023-02-17T12:19:56.013Z,2.75
2023-02-17T12:22:27.656Z,4.75
2023-02-17T12:25:05.104Z,4.25
2023-02-17T12:27:39.933Z,4.00
2023-02-17T12:30:21.808Z,3.75
2023-02-17T12:33:01.658Z,3.00
2023-02-17T12:35:34.880Z,3.00
2023-02-17T12:38:10.078Z,3.50
2023-02-17T12:40:38.983Z,4.00
2023-02-17T12:43:09.811Z,4.00
2023-02-17T12:45:39.791Z,3.25
2023-02-17T12:48:11.237Z,3.00
2023-02-17T12:50:40.456Z,3.00
2023-02-17T12:53:12.977Z,3.00
2023-02-17T12:55:48.504Z,3.00
2023-02-17T12:58:17.889Z,3.00
2023-02-17T13:00:47.402Z,3.00
2023-02-17T13:03:15.337Z,3.00
2023-02-17T13:05:45.879Z,3.00
2023-02-17T13:08:17.523Z,3.25
2023-02-17T13:10:45.414Z,2.00
2023-02-17T13:13:15.266Z,4.00
2023-02-17T13:15:44.229Z,3.00
2023-02-17T13:18:15.903Z,3.00
2023-02-17T13:20:55.359Z,4.25
2023-02-17T13:23:38.565Z,3.00
2023-02-17T13:26:31.085Z,3.00
2023-02-17T13:29:10.954Z,3.00
2023-02-17T13:31:47.156Z,2.75
2023-02-17T13:34:28.403Z,2.75
2023-02-17T13:36:56.302Z,2.25
2023-02-17T13:39:46.914Z,3.50
2023-02-17T13:42:35.599Z,2.75
2023-02-17T13:45:04.932Z,3.00
2023-02-17T13:47:37.714Z,2.00
2023-02-17T13:50:07.320Z,3.00
2023-02-17T13:52:35.273Z,3.25
2023-02-17T13:55:05.637Z,3.00
2023-02-17T13:57:34.641Z,2.50
2023-02-17T14:00:17.928Z,3.00
2023-02-17T14:02:47.399Z,3.00
2023-02-17T14:05:19.951Z,3.00
2023-02-17T14:07:48.529Z,3.00
2023-02-17T14:10:20.469Z,2.00
2023-02-17T14:12:49.254Z,3.25
2023-02-17T14:15:17.944Z,2.00
2023-02-17T14:17:46.145Z,3.00
2023-02-17T14:20:31.401Z,3.00
2023-02-17T14:23:04.713Z,3.00
2023-02-17T14:25:35.464Z,2.00
2023-02-17T14:28:03.413Z,2.00
2023-02-17T14:30:32.700Z,2.75
2023-02-17T14:33:05.470Z,2.00
2023-02-17T14:35:35.217Z,3.00
2023-02-17T14:38:10.959Z,2.75
2023-02-17T14:40:40.392Z,2.75
2023-02-17T14:43:08.278Z,2.00
2023-02-17T14:45:36.183Z,3.00
2023-02-17T14:48:04.607Z,2.00
2023-02-17T14:50:33.101Z,3.00
2023-02-17T14:53:00.945Z,1.75
2023-02-17T14:55:33.712Z,3.00
2023-02-17T14:58:03.381Z,4.00
2023-02-17T15:00:31.407Z,5.00
2023-02-17T15:02:59.369Z,4.00
2023-02-17T15:05:27.626Z,5.00
2023-02-17T15:07:55.657Z,6.00
2023-02-17T15:10:26.361Z,6.00
2023-02-17T15:12:54.380Z,5.50
2023-02-17T15:15:23.776Z,4.00
2023-02-17T15:17:51.996Z,4.00
2023-02-17T15:20:19.924Z,4.00
2023-02-17T15:22:52.711Z,4.75
2023-02-17T15:25:22.257Z,5.00
2023-02-17T15:27:50.786Z,5.00
2023-02-17T15:30:19.284Z,5.25
2023-02-17T15:32:48.599Z,5.00
2023-02-17T15:35:18.008Z,5.00
2023-02-17T15:37:46.323Z,4.75
2023-02-17T15:40:15.635Z,5.00
2023-02-17T15:42:43.860Z,6.00
2023-02-17T15:45:13.549Z,4.00
2023-02-17T15:47:41.705Z,6.75
2023-02-17T15:50:20.383Z,4.75
2023-02-17T15:52:48.729Z,6.25
2023-02-17T15:55:16.980Z,5.75
2023-02-17T15:57:47.423Z,5.25
2023-02-17T16:00:22.851Z,7.00
2023-02-17T16:02:50.907Z,5.75
2023-02-17T16:05:21.543Z,4.00
2023-02-17T16:07:49.911Z,5.00
2023-02-17T16:10:18.874Z,5.50
2023-02-17T16:12:46.847Z,4.75
2023-02-17T16:15:15.689Z,6.75
2023-02-17T16:17:43.916Z,5.00
2023-02-17T16:20:16.633Z,5.75
2023-02-17T16:22:46.421Z,5.50
2023-02-17T16:25:14.751Z,4.75
2023-02-17T16:27:42.989Z,5.00
2023-02-17T16:30:18.147Z,6.00
2023-02-17T16:32:46.311Z,6.00
2023-02-17T16:35:15.654Z,5.00
2023-02-17T16:37:55.328Z,7.00
2023-02-17T16:40:24.241Z,5.00
2023-02-17T16:42:52.155Z,5.50
2023-02-17T16:45:21.307Z,5.25
2023-02-17T16:47:50.161Z,5.75
2023-02-17T16:50:19.908Z,4.75
2023-02-17T16:52:47.869Z,5.00
2023-02-17T16:55:18.280Z,4.25
2023-02-17T16:57:46.582Z,6.00
2023-02-17T17:00:16.427Z,4.00
2023-02-17T17:02:44.656Z,5.25
2023-02-17T17:05:12.940Z,5.00
2023-02-17T17:07:41.334Z,4.00
2023-02-17T17:10:17.358Z,5.00
2023-02-17T17:12:46.840Z,3.00
2023-02-17T17:15:16.291Z,4.00
2023-02-17T17:17:46.200Z,4.00
2023-02-17T17:20:15.685Z,4.50
2023-02-17T17:22:43.603Z,4.50
2023-02-17T17:25:11.474Z,4.25
2023-02-17T17:27:41.662Z,3.75
2023-02-17T17:30:17.305Z,4.00
2023-02-17T17:32:45.283Z,4.25
2023-02-17T17:35:13.183Z,4.00
2023-02-17T17:37:41.395Z,4.00
2023-02-17T17:40:15.628Z,4.75
2023-02-17T17:42:43.919Z,4.75
2023-02-17T17:45:12.172Z,3.00
2023-02-17T17:47:41.812Z,4.00
2023-02-17T17:50:13.436Z,5.00
2023-02-17T17:52:41.480Z,4.00
2023-02-17T17:55:09.588Z,3.25
2023-02-17T17:57:37.795Z,4.00
2023-02-17T18:00:08.771Z,4.00
2023-02-17T18:02:36.674Z,3.00
2023-02-17T18:05:06.292Z,4.00
2023-02-17T18:07:36.670Z,3.50
2023-02-17T18:10:06.534Z,3.00
2023-02-17T18:12:34.504Z,4.00
2023-02-17T18:15:04.169Z,3.75
2023-02-17T18:17:32.738Z,3.50
2023-02-17T18:20:00.799Z,4.00
2023-02-17T18:22:30.113Z,4.25
2023-02-17T18:24:57.997Z,4.25
2023-02-17T18:27:25.883Z,3.00
2023-02-17T18:29:55.803Z,4.00
2023-02-17T18:32:24.701Z,4.75
2023-02-17T18:34:53.433Z,3.50
2023-02-17T18:37:21.536Z,4.00
2023-02-17T18:39:50.824Z,3.00
2023-02-17T18:42:18.755Z,3.00
2023-02-17T18:44:46.637Z,4.00
2023-02-17T18:47:14.542Z,4.00
2023-02-17T18:49:42.761Z,4.00
2023-02-17T18:52:10.623Z,3.25
2023-02-17T18:54:42.250Z,4.75
2023-02-17T18:57:11.570Z,4.00
2023-02-17T18:59:39.801Z,5.00
2023-02-17T19:02:07.847Z,4.00
2023-02-17T19:04:35.779Z,3.00
2023-02-17T19:07:06.117Z,3.00
2023-02-17T19:09:34.150Z,4.00
2023-02-17T19:12:02.074Z,3.25
2023-02-17T19:14:33.152Z,3.00
2023-02-17T19:17:01.022Z,4.00
2023-02-17T19:19:31.469Z,3.50
2023-02-17T19:21:59.350Z,3.00
2023-02-17T19:24:27.303Z,3.00
2023-02-17T19:26:55.876Z,3.00
2023-02-17T19:29:24.052Z,2.50
2023-02-17T19:31:53.523Z,3.00
2023-02-17T19:34:21.543Z,3.25
2023-02-17T19:36:49.432Z,3.00
2023-02-17T19:39:17.638Z,4.00
2023-02-17T19:41:45.582Z,5.00
2023-02-17T19:44:13.530Z,4.00
2023-02-17T19:46:41.506Z,3.00
2023-02-17T19:49:11.165Z,3.50
2023-02-17T19:51:39.054Z,4.00
2023-02-17T19:54:07.029Z,3.00
2023-02-17T19:56:35.300Z,3.50
2023-02-17T19:59:03.532Z,3.75
2023-02-17T20:01:32.590Z,3.50
2023-02-17T20:04:01.508Z,3.75
2023-02-17T20:06:32.124Z,2.75
2023-02-17T20:09:01.565Z,4.00
2023-02-17T20:11:29.752Z,3.00
2023-02-17T20:13:58.014Z,3.00
2023-02-17T20:16:26.019Z,4.00
2023-02-17T20:18:55.181Z,4.00
2023-02-17T20:21:24.405Z,3.75
2023-02-17T20:23:53.669Z,4.50
2023-02-17T20:26:22.625Z,4.00
2023-02-17T20:28:51.354Z,4.00
2023-02-17T20:31:19.742Z,3.00
2023-02-17T20:33:48.164Z,4.00
2023-02-17T20:36:16.167Z,3.25
2023-02-17T20:38:44.963Z,4.25
2023-02-17T20:41:16.531Z,3.00
2023-02-17T20:43:44.432Z,4.25
2023-02-17T20:46:14.128Z,3.00
2023-02-17T20:48:42.379Z,3.00
2023-02-17T20:51:10.241Z,3.00
2023-02-17T20:53:38.173Z,3.00
2023-02-17T20:56:15.154Z,3.25
2023-02-17T20:58:43.129Z,3.00
2023-02-17T21:01:11.072Z,4.75
2023-02-17T21:03:39.138Z,3.00
2023-02-17T21:06:21.628Z,3.00
2023-02-17T21:08:51.137Z,2.00
2023-02-17T21:11:20.520Z,3.00
2023-02-17T21:13:48.894Z,3.25
2023-02-17T21:16:17.933Z,3.00
2023-02-17T21:18:47.097Z,2.00
2023-02-17T21:21:16.106Z,3.00
2023-02-17T21:23:44.013Z,3.00
2023-02-17T21:26:12.339Z,3.00
2023-02-17T21:28:41.980Z,4.00
2023-02-17T21:31:10.084Z,3.00
2023-02-17T21:33:41.883Z,3.50
2023-02-17T21:36:11.211Z,4.00
2023-02-17T21:38:39.517Z,3.25
2023-02-17T21:41:08.148Z,2.75
2023-02-17T21:43:53.454Z,3.75
2023-02-17T21:46:22.889Z,3.00
2023-02-17T21:48:53.105Z,5.00
2023-02-17T21:51:21.248Z,3.00
2023-02-17T21:53:49.220Z,3.00
2023-02-17T21:56:17.195Z,3.75
2023-02-17T21:58:47.119Z,2.50
2023-02-17T22:01:15.149Z,3.00
2023-02-17T22:03:44.556Z,3.00
2023-02-17T22:06:16.858Z,3.00
2023-02-17T22:08:45.433Z,2.00
2023-02-17T22:11:17.059Z,3.00
2023-02-17T22:13:45.052Z,3.25
2023-02-17T22:16:13.125Z,2.25
2023-02-17T22:18:41.340Z,3.00
2023-02-17T22:21:11.248Z,3.00
2023-02-17T22:23:39.189Z,2.50
2023-02-17T22:26:08.664Z,2.00
2023-02-17T22:28:37.048Z,3.00
2023-02-17T22:31:05.246Z,3.75
2023-02-17T22:33:33.175Z,3.00
2023-02-17T22:36:01.410Z,2.75
2023-02-17T22:38:30.982Z,3.25
2023-02-17T22:40:58.900Z,3.00
2023-02-17T22:43:26.852Z,2.00
2023-02-17T22:45:59.146Z,2.75
2023-02-17T22:48:27.389Z,3.00
2023-02-17T22:50:55.299Z,2.00
2023-02-17T22:53:23.173Z,2.00
2023-02-17T22:55:55.553Z,3.25
2023-02-17T22:58:24.092Z,2.50
2023-02-17T23:00:52.152Z,2.00
2023-02-17T23:03:20.081Z,2.00
2023-02-17T23:05:47.983Z,2.25
2023-02-17T23:08:15.868Z,2.50
2023-02-17T23:10:43.952Z,3.00
2023-02-17T23:13:13.261Z,2.25
2023-02-17T23:15:41.310Z,2.00
2023-02-17T23:18:09.643Z,3.00
2023-02-17T23:20:38.786Z,3.00
2023-02-17T23:23:06.721Z,3.00
2023-02-17T23:25:34.783Z,3.00
2023-02-17T23:28:03.639Z,2.00
2023-02-17T23:30:33.129Z,2.00
2023-02-17T23:33:01.081Z,2.00
2023-02-17T23:35:28.985Z,3.00
2023-02-17T23:37:57.180Z,3.00
2023-02-17T23:40:25.088Z,3.50
2023-02-17T23:42:53.194Z,2.75
2023-02-17T23:45:21.101Z,3.00
2023-02-17T23:47:50.461Z,2.00
2023-02-17T23:50:18.405Z,3.00
2023-02-17T23:52:46.274Z,2.00
2023-02-17T23:55:14.179Z,3.25
2023-02-17T23:57:42.370Z,3.00
